createdAt,value
2023-03-23T15:59:03.795Z,-0.84
2023-03-23T16:01:34.626Z,-0.87
2023-03-23T16:04:13.157Z,-0.88
2023-03-23T16:06:46.581Z,-0.91
2023-03-23T16:09:20.755Z,-1.53
2023-03-23T16:11:51.481Z,-0.96
2023-03-23T16:14:22.014Z,-0.98
2023-03-23T16:16:57.900Z,-1.63
2023-03-23T16:19:31.174Z,-1.03
2023-03-23T16:22:02.668Z,-1.05
2023-03-23T16:24:34.871Z,-1.13
2023-03-23T16:27:05.428Z,-1.10
2023-03-23T16:32:10.992Z,-1.18
2023-03-23T16:34:41.462Z,-1.20
2023-03-23T16:37:14.241Z,-1.22
2023-03-23T16:39:46.961Z,-1.20
2023-03-23T16:42:18.880Z,-1.24
2023-03-23T16:44:52.889Z,-1.21
2023-03-23T16:47:27.729Z,-1.20
2023-03-23T16:49:58.456Z,-1.18
2023-03-23T16:52:31.658Z,-1.22
2023-03-23T16:55:06.789Z,-1.22
2023-03-23T16:57:42.043Z,-1.76
2023-03-23T17:00:19.127Z,-1.34
2023-03-23T17:02:52.629Z,-1.23
2023-03-23T17:05:24.838Z,-1.78
2023-03-23T17:07:57.143Z,-1.55
2023-03-23T17:10:31.104Z,-1.47
2023-03-23T17:13:02.023Z,-1.29
2023-03-23T17:15:32.565Z,-1.29
2023-03-23T17:18:03.130Z,-1.34
2023-03-23T17:20:38.416Z,-1.45
2023-03-23T17:23:10.120Z,-1.43
2023-03-23T17:25:42.830Z,-1.31
2023-03-23T17:28:13.710Z,-1.34
2023-03-23T17:30:45.188Z,-1.61
2023-03-23T17:33:16.331Z,-1.60
2023-03-23T17:35:52.647Z,-1.39
2023-03-23T17:38:23.283Z,-1.40
2023-03-23T17:41:01.238Z,-1.43
2023-03-23T17:43:35.530Z,-1.43
2023-03-23T17:46:07.173Z,-1.43
2023-03-23T17:48:38.215Z,-1.44
2023-03-23T17:51:12.201Z,-1.46
2023-03-23T17:53:42.786Z,-1.46
2023-03-23T17:56:16.493Z,-1.47
2023-03-23T17:58:53.226Z,-1.53
2023-03-23T18:01:23.905Z,-1.52
2023-03-23T18:03:54.549Z,-1.56
2023-03-23T18:06:25.021Z,-1.78
2023-03-23T18:08:55.493Z,-1.53
2023-03-23T18:11:28.616Z,-1.51
2023-03-23T18:14:01.646Z,-1.52
2023-03-23T18:16:32.165Z,-1.52
2023-03-23T18:19:05.606Z,-1.49
2023-03-23T18:21:36.159Z,-1.45
2023-03-23T18:24:06.803Z,-1.44
2023-03-23T18:26:39.572Z,-1.44
2023-03-23T18:29:13.501Z,-1.44
2023-03-23T18:31:45.055Z,-1.43
2023-03-23T18:34:37.164Z,-1.41
2023-03-23T18:37:13.097Z,-1.40
2023-03-23T18:39:46.323Z,-1.41
2023-03-23T18:42:18.537Z,-1.42
2023-03-23T18:44:49.472Z,-1.38
2023-03-23T18:47:20.064Z,-1.33
2023-03-23T18:50:01.788Z,-1.34
2023-03-23T18:52:37.845Z,-1.43
2023-03-23T18:55:08.933Z,-1.31
2023-03-23T18:57:42.252Z,-1.46
2023-03-23T19:00:13.805Z,-1.36
2023-03-23T19:02:44.511Z,-1.41
2023-03-23T19:05:23.701Z,-1.31
2023-03-23T19:07:56.106Z,-1.31
2023-03-23T19:10:28.323Z,-1.27
2023-03-23T19:13:05.111Z,-1.28
2023-03-23T19:15:35.840Z,-1.27
2023-03-23T19:18:06.443Z,-1.28
2023-03-23T19:21:09.555Z,-1.35
2023-03-23T19:23:33.500Z,-1.33
2023-03-23T19:26:07.200Z,-1.37
2023-03-23T19:31:14.748Z,-1.48
2023-03-23T19:33:46.317Z,-1.49
2023-03-23T19:36:18.606Z,-1.48
2023-03-23T19:38:53.793Z,-1.45
2023-03-23T19:43:57.474Z,-1.47
2023-03-23T19:46:31.715Z,-1.44
2023-03-23T19:49:02.827Z,-1.37
2023-03-23T19:51:33.546Z,-1.41
2023-03-23T19:54:04.136Z,-1.37
2023-03-23T19:56:37.669Z,-1.42
2023-03-23T19:59:15.372Z,-1.43
2023-03-23T20:01:47.090Z,-1.41
2023-03-23T20:04:19.462Z,-1.41
2023-03-23T20:06:51.138Z,-1.42
2023-03-23T20:09:22.209Z,-1.41
2023-03-23T20:11:53.603Z,-1.43
2023-03-23T20:14:25.895Z,-2.02
2023-03-23T20:16:56.202Z,-1.37
2023-03-23T20:19:26.809Z,-1.31
2023-03-23T20:21:57.543Z,-1.25
2023-03-23T20:24:27.943Z,-1.22
2023-03-23T20:26:58.346Z,-1.19
2023-03-23T20:29:31.782Z,-1.26
2023-03-23T20:32:02.218Z,-1.32
2023-03-23T20:34:33.781Z,-1.32
2023-03-23T20:37:04.816Z,-1.44
2023-03-23T20:39:37.465Z,-1.44
2023-03-23T20:42:08.804Z,-1.56
2023-03-23T20:44:42.471Z,-1.24
2023-03-23T20:47:13.246Z,-1.24
2023-03-23T20:49:43.678Z,-1.22
2023-03-23T20:52:26.773Z,-1.17
2023-03-23T20:54:58.721Z,-1.19
2023-03-23T20:57:29.565Z,-1.10
2023-03-23T21:00:01.668Z,-1.05
2023-03-23T21:02:32.134Z,-1.06
2023-03-23T21:05:05.537Z,-1.00
2023-03-23T21:07:36.949Z,-1.00
2023-03-23T21:10:08.060Z,-0.99
2023-03-23T21:12:38.460Z,-0.96
2023-03-23T21:15:13.392Z,-1.02
2023-03-23T21:17:43.814Z,-0.95
2023-03-23T21:20:14.455Z,-0.95
2023-03-23T21:22:44.898Z,-0.92
2023-03-23T21:25:15.497Z,-0.90
2023-03-23T21:27:46.969Z,-0.88
2023-03-23T21:30:20.644Z,-0.81
2023-03-23T21:32:51.592Z,-0.76
2023-03-23T21:35:22.448Z,-0.78
2023-03-23T21:37:54.393Z,-0.66
2023-03-23T21:40:24.821Z,-0.66
2023-03-23T21:42:55.351Z,-0.65
2023-03-23T21:45:27.788Z,-0.72
2023-03-23T21:47:59.296Z,-0.67
2023-03-23T21:50:30.800Z,-0.62
2023-03-23T21:53:02.259Z,-0.55
2023-03-23T21:55:32.761Z,-0.51
2023-03-23T21:58:03.672Z,-0.67
2023-03-23T22:00:35.833Z,-0.41
2023-03-23T22:03:06.573Z,-0.34
2023-03-23T22:05:37.308Z,-0.29
2023-03-23T22:08:10.182Z,-0.24
2023-03-23T22:10:44.173Z,-0.21
2023-03-23T22:13:33.859Z,-0.29
2023-03-23T22:16:08.072Z,-0.31
2023-03-23T22:18:39.780Z,-0.64
2023-03-23T22:21:10.709Z,-0.22
2023-03-23T22:23:42.170Z,0.07
2023-03-23T22:26:12.925Z,0.28
2023-03-23T22:28:44.160Z,0.13
2023-03-23T22:31:19.518Z,0.34
2023-03-23T22:33:51.277Z,0.17
2023-03-23T22:36:22.020Z,0.78
2023-03-23T22:38:52.985Z,0.41
2023-03-23T22:41:25.960Z,0.70
2023-03-23T22:43:57.005Z,0.67
2023-03-23T22:46:29.568Z,0.42
2023-03-23T22:49:00.111Z,0.63
2023-03-23T22:51:30.855Z,0.23
2023-03-23T22:54:01.414Z,-0.05
2023-03-23T22:56:32.452Z,-0.17
2023-03-23T22:59:03.037Z,-0.30
2023-03-23T23:01:35.529Z,-0.34
2023-03-23T23:04:07.258Z,-0.50
2023-03-23T23:06:38.107Z,-0.55
2023-03-23T23:09:08.876Z,-0.60
2023-03-23T23:11:39.624Z,-0.52
2023-03-23T23:14:10.847Z,-0.32
2023-03-23T23:16:43.156Z,-0.21
2023-03-23T23:19:14.166Z,-0.21
2023-03-23T23:21:44.806Z,-0.48
2023-03-23T23:24:18.448Z,-0.36
2023-03-23T23:26:49.259Z,-0.29
2023-03-23T23:29:19.909Z,-0.02
2023-03-23T23:31:52.215Z,0.33
2023-03-23T23:34:23.005Z,0.57
2023-03-23T23:36:53.612Z,0.21
2023-03-23T23:39:24.275Z,0.56
2023-03-23T23:41:54.991Z,0.46
2023-03-23T23:44:25.779Z,0.31
2023-03-23T23:47:00.983Z,0.39
2023-03-23T23:49:33.637Z,0.38
2023-03-23T23:52:04.312Z,0.68
2023-03-23T23:54:37.597Z,0.60
2023-03-23T23:57:08.709Z,0.49
2023-03-23T23:59:39.374Z,0.49
